Otley, Iowa
Current Conditions -  °F | °C
As of 3:55 AM on Friday 28 Nov 2014 (Local Time) from KPEA Reporting Station
Clear Clear  
Wind Chill:   Ceiling: Unl
Heat Index: 17°   Visibility: 10mi
Dew Point: 12°   Wind: 8mph
Humidity: 79%   Direction: 120°ESE
Pressure: 30.15"   Gusts: NA
Location:  41.46°N, 93.04°W
Report Text: KPEA 280955Z AUTO 12007KT 10SM CLR M08/M11 A3015 RMK AO2 T10811112
Loading
Personal Weather Stations






























Interactive Weather Map New forecast layout! Learn more

10-Day Weather Forecast

Advertisements
Track Severe Weather on mobile